Time,TemperatureF,DewpointF,PressureIn,WindDirection,WindDirectionDegrees,WindSpeedMPH,WindSpeedGustMPH,Humidity,HourlyPrecipIn,Conditions,Clouds,dailyrainin,SoftwareType,DateUTC
2013-03-15 00:00:00,49.8,45.2,29.27,West,269,7.0,24.0,84,0.00,,,0.73,VWS V14.01,2013-03-14 23:00:00,
2013-03-15 00:05:00,49.1,45.1,29.27,West,276,27.0,27.0,86,0.00,,,0.73,VWS V14.01,2013-03-14 23:05:00,
2013-03-15 00:10:00,48.6,44.9,29.27,WNW,286,14.0,14.0,87,0.01,,,0.01,VWS V14.01,2013-03-14 23:10:00,
2013-03-15 00:15:00,47.9,43.9,29.28,NW,309,11.0,23.0,86,0.02,,,0.02,VWS V14.01,2013-03-14 23:15:00,
2013-03-15 00:20:00,47.5,43.8,29.28,NW,312,10.0,16.0,87,0.06,,,0.06,VWS V14.01,2013-03-14 23:20:00,
2013-03-15 00:25:00,47.3,43.9,29.28,NW,320,9.0,16.0,88,0.08,,,0.08,VWS V14.01,2013-03-14 23:25:00,
2013-03-15 00:30:00,47.0,43.9,29.27,NNW,346,7.0,13.0,89,0.08,,,0.08,VWS V14.01,2013-03-14 23:30:00,
2013-03-15 00:35:00,47.1,44.0,29.27,NNW,337,5.0,13.0,89,0.08,,,0.08,VWS V14.01,2013-03-14 23:35:00,
2013-03-15 00:40:00,47.0,43.9,29.27,NNW,338,7.0,12.0,89,0.08,,,0.08,VWS V14.01,2013-03-14 23:40:00,
2013-03-15 00:45:00,47.2,43.5,29.27,North,10,7.0,15.0,87,0.08,,,0.08,VWS V14.01,2013-03-14 23:45:00,
2013-03-15 00:50:00,47.5,43.5,29.27,NNW,329,9.0,11.0,86,0.08,,,0.08,VWS V14.01,2013-03-14 23:50:00,
2013-03-15 00:55:00,47.8,43.8,29.27,NNW,348,7.0,17.0,86,0.08,,,0.08,VWS V14.01,2013-03-14 23:55:00,
2013-03-15 01:00:00,48.0,44.0,29.27,NNW,337,7.0,14.0,86,0.08,,,0.08,VWS V14.01,2013-03-15 00:00:00,
2013-03-15 01:05:00,48.2,44.2,29.27,WNW,287,6.0,14.0,86,0.09,,,0.09,VWS V14.01,2013-03-15 00:05:00,
2013-03-15 01:10:00,48.4,44.7,29.27,WNW,286,9.0,19.0,87,0.09,,,0.09,VWS V14.01,2013-03-15 00:10:00,
2013-03-15 01:15:00,48.5,45.4,29.27,West,276,7.0,24.0,89,0.11,,,0.11,VWS V14.01,2013-03-15 00:15:00,
2013-03-15 01:20:00,48.2,45.4,29.27,West,273,17.0,22.0,90,0.10,,,0.13,VWS V14.01,2013-03-15 00:20:00,
2013-03-15 01:25:00,48.1,45.3,29.27,NW,306,17.0,25.0,90,0.11,,,0.14,VWS V14.01,2013-03-15 00:25:00,
2013-03-15 01:30:00,47.9,44.8,29.27,NW,321,11.0,11.0,89,0.06,,,0.14,VWS V14.01,2013-03-15 00:30:00,
2013-03-15 01:35:00,48.0,44.9,29.28,WNW,283,11.0,15.0,89,0.07,,,0.15,VWS V14.01,2013-03-15 00:35:00,
2013-03-15 01:40:00,48.2,45.1,29.28,West,279,10.0,22.0,89,0.07,,,0.15,VWS V14.01,2013-03-15 00:40:00,
2013-03-15 01:46:00,47.9,44.8,29.28,West,267,7.0,22.0,89,0.08,,,0.16,VWS V14.01,2013-03-15 00:46:00,
2013-03-15 01:50:00,47.7,44.9,29.28,WNW,292,10.0,16.0,90,0.10,,,0.18,VWS V14.01,2013-03-15 00:50:00,
2013-03-15 01:55:00,47.7,44.9,29.29,WNW,303,10.0,25.0,90,0.11,,,0.19,VWS V14.01,2013-03-15 00:55:00,
2013-03-15 02:00:00,47.4,44.6,29.29,NW,317,11.0,18.0,90,0.12,,,0.20,VWS V14.01,2013-03-15 01:00:00,
2013-03-15 02:05:00,47.5,44.4,29.29,WNW,300,20.0,20.0,89,0.12,,,0.20,VWS V14.01,2013-03-15 01:05:00,
2013-03-15 02:10:00,47.5,44.1,29.29,West,281,10.0,21.0,88,0.11,,,0.20,VWS V14.01,2013-03-15 01:10:00,
2013-03-15 02:15:00,47.5,43.8,29.29,WNW,294,17.0,21.0,87,0.11,,,0.20,VWS V14.01,2013-03-15 01:15:00,
2013-03-15 02:20:00,47.3,43.6,29.30,WNW,299,7.0,16.0,87,0.08,,,0.20,VWS V14.01,2013-03-15 01:20:00,
2013-03-15 02:25:00,47.1,43.4,29.30,NW,322,9.0,16.0,87,0.09,,,0.21,VWS V14.01,2013-03-15 01:25:00,
2013-03-15 02:30:00,46.4,43.3,29.30,NNW,334,5.0,14.0,89,0.07,,,0.21,VWS V14.01,2013-03-15 01:30:00,
2013-03-15 02:31:00,46.5,43.1,29.30,North,351,9.0,14.0,88,0.07,,,0.21,VWS V14.01,2013-03-15 01:31:00,
2013-03-15 02:36:00,46.4,43.3,29.30,NNW,347,7.0,7.0,89,0.06,,,0.21,VWS V14.01,2013-03-15 01:36:00,
2013-03-15 02:40:00,46.8,43.4,29.30,NW,325,7.0,15.0,88,0.06,,,0.21,VWS V14.01,2013-03-15 01:40:00,
2013-03-15 02:41:00,46.9,43.5,29.30,NW,313,4.0,15.0,88,0.06,,,0.21,VWS V14.01,2013-03-15 01:41:00,
2013-03-15 02:46:00,46.9,43.5,29.30,NW,313,7.0,9.0,88,0.05,,,0.21,VWS V14.01,2013-03-15 01:46:00,
2013-03-15 02:50:00,46.8,43.7,29.29,NW,323,12.0,14.0,89,0.06,,,0.22,VWS V14.01,2013-03-15 01:50:00,
2013-03-15 02:51:00,46.9,43.8,29.30,NW,326,7.0,11.0,89,0.05,,,0.21,VWS V14.01,2013-03-15 01:51:00,
2013-03-15 02:56:00,46.8,43.7,29.30,NNW,346,10.0,12.0,89,0.03,,,0.22,VWS V14.01,2013-03-15 01:56:00,
2013-03-15 03:00:00,47.1,44.0,29.30,WNW,300,8.0,17.0,89,0.03,,,0.22,VWS V14.01,2013-03-15 02:00:00,
2013-03-15 03:01:00,46.9,43.8,29.30,NW,312,11.0,15.0,89,0.03,,,0.22,VWS V14.01,2013-03-15 02:01:00,
2013-03-15 03:06:00,47.1,44.0,29.30,NNW,341,6.0,13.0,89,0.02,,,0.22,VWS V14.01,2013-03-15 02:06:00,
2013-03-15 03:10:00,47.0,43.9,29.30,NW,308,4.0,18.0,89,0.02,,,0.22,VWS V14.01,2013-03-15 02:10:00,
2013-03-15 03:12:00,47.1,44.0,29.30,WNW,295,9.0,18.0,89,0.02,,,0.22,VWS V14.01,2013-03-15 02:12:00,
2013-03-15 03:17:00,46.9,43.8,29.30,NW,321,7.0,10.0,89,0.02,,,0.22,VWS V14.01,2013-03-15 02:17:00,
2013-03-15 03:20:00,46.6,43.5,29.31,North,355,3.0,13.0,89,0.02,,,0.22,VWS V14.01,2013-03-15 02:20:00,
2013-03-15 03:22:00,46.7,43.6,29.31,North,355,7.0,13.0,89,0.02,,,0.22,VWS V14.01,2013-03-15 02:22:00,
2013-03-15 03:27:00,46.4,43.3,29.31,NE,51,6.0,6.0,89,0.02,,,0.23,VWS V14.01,2013-03-15 02:27:00,
2013-03-15 03:30:00,45.7,42.9,29.31,NE,53,2.0,9.0,90,0.05,,,0.26,VWS V14.01,2013-03-15 02:30:00,
2013-03-15 03:32:00,45.9,43.1,29.31,NE,51,8.0,8.0,90,0.04,,,0.25,VWS V14.01,2013-03-15 02:32:00,
2013-03-15 03:37:00,45.6,42.8,29.31,NE,51,4.0,5.0,90,0.06,,,0.27,VWS V14.01,2013-03-15 02:37:00,
2013-03-15 03:40:00,45.3,42.8,29.32,NNE,25,5.0,8.0,91,0.09,,,0.30,VWS V14.01,2013-03-15 02:40:00,
2013-03-15 03:42:00,45.4,42.9,29.32,North,11,8.0,8.0,91,0.08,,,0.29,VWS V14.01,2013-03-15 02:42:00,
2013-03-15 03:47:00,45.3,42.8,29.31,ENE,66,8.0,8.0,91,0.10,,,0.31,VWS V14.01,2013-03-15 02:47:00,
2013-03-15 03:50:00,42.5,39.8,29.31,ENE,67,12.0,21.0,90,0.12,,,0.33,VWS V14.01,2013-03-15 02:50:00,
2013-03-15 03:52:00,43.9,41.2,29.32,East,83,10.0,21.0,90,0.11,,,0.32,VWS V14.01,2013-03-15 02:52:00,
2013-03-15 03:57:00,42.3,39.6,29.31,ESE,107,12.0,16.0,90,0.12,,,0.34,VWS V14.01,2013-03-15 02:57:00,
2013-03-15 04:00:00,41.4,39.0,29.32,East,94,9.0,17.0,91,0.15,,,0.37,VWS V14.01,2013-03-15 03:00:00,
2013-03-15 04:02:00,41.8,39.1,29.32,East,84,13.0,17.0,90,0.14,,,0.36,VWS V14.01,2013-03-15 03:02:00,
2013-03-15 04:07:00,41.3,38.9,29.32,East,82,13.0,17.0,91,0.16,,,0.38,VWS V14.01,2013-03-15 03:07:00,
2013-03-15 04:10:00,40.9,40.1,29.33,East,88,9.0,17.0,97,0.21,,,0.43,VWS V14.01,2013-03-15 03:10:00,
2013-03-15 04:13:00,40.9,38.5,29.32,East,95,13.0,17.0,91,0.19,,,0.41,VWS V14.01,2013-03-15 03:13:00,
2013-03-15 04:18:00,41.0,38.6,29.33,East,85,6.0,11.0,91,0.22,,,0.44,VWS V14.01,2013-03-15 03:18:00,
2013-03-15 04:20:00,40.9,38.8,29.33,ESE,103,11.0,16.0,92,0.26,,,0.48,VWS V14.01,2013-03-15 03:20:00,
2013-03-15 04:23:00,41.0,38.9,29.33,ENE,66,14.0,14.0,92,0.24,,,0.46,VWS V14.01,2013-03-15 03:23:00,
2013-03-15 04:28:00,40.8,38.7,29.33,East,88,9.0,15.0,92,0.26,,,0.48,VWS V14.01,2013-03-15 03:28:00,
2013-03-15 04:30:00,40.5,38.4,29.34,NE,55,7.0,15.0,92,0.28,,,0.50,VWS V14.01,2013-03-15 03:30:00,
2013-03-15 04:33:00,40.6,38.5,29.34,East,80,7.0,15.0,92,0.27,,,0.49,VWS V14.01,2013-03-15 03:33:00,
2013-03-15 04:38:00,40.5,38.4,29.33,East,82,11.0,15.0,92,0.25,,,0.51,VWS V14.01,2013-03-15 03:38:00,
2013-03-15 04:40:00,40.6,38.5,29.33,ENE,57,11.0,16.0,92,0.27,,,0.53,VWS V14.01,2013-03-15 03:40:00,
2013-03-15 04:43:00,40.6,38.5,29.33,ENE,76,7.0,16.0,92,0.26,,,0.52,VWS V14.01,2013-03-15 03:43:00,
2013-03-15 04:48:00,40.6,38.5,29.33,ENE,73,8.0,13.0,92,0.23,,,0.53,VWS V14.01,2013-03-15 03:48:00,
2013-03-15 04:50:00,40.4,38.5,29.34,East,85,9.0,14.0,93,0.23,,,0.53,VWS V14.01,2013-03-15 03:50:00,
2013-03-15 04:53:00,40.4,38.3,29.34,East,91,8.0,14.0,92,0.23,,,0.53,VWS V14.01,2013-03-15 03:53:00,
2013-03-15 04:58:00,40.3,38.4,29.34,East,95,10.0,16.0,93,0.20,,,0.53,VWS V14.01,2013-03-15 03:58:00,
2013-03-15 05:00:00,39.9,37.8,29.34,East,80,10.0,17.0,92,0.20,,,0.53,VWS V14.01,2013-03-15 04:00:00,
2013-03-15 05:05:00,39.8,37.7,29.34,East,98,13.0,20.0,92,0.21,,,0.54,VWS V14.01,2013-03-15 04:05:00,
2013-03-15 05:10:00,39.7,37.6,29.34,ESE,105,12.0,16.0,92,0.17,,,0.54,VWS V14.01,2013-03-15 04:10:00,
2013-03-15 05:15:00,39.4,37.3,29.35,ENE,74,10.0,19.0,92,0.17,,,0.54,VWS V14.01,2013-03-15 04:15:00,
2013-03-15 05:20:00,39.6,37.5,29.35,ENE,67,13.0,19.0,92,0.12,,,0.55,VWS V14.01,2013-03-15 04:20:00,
2013-03-15 05:25:00,39.6,37.2,29.35,ESE,105,13.0,19.0,91,0.12,,,0.55,VWS V14.01,2013-03-15 04:25:00,
2013-03-15 05:30:00,39.6,37.2,29.35,East,98,11.0,16.0,91,0.07,,,0.55,VWS V14.01,2013-03-15 04:30:00,
2013-03-15 05:35:00,39.2,36.8,29.36,ENE,71,16.0,19.0,91,0.07,,,0.55,VWS V14.01,2013-03-15 04:35:00,
2013-03-15 05:40:00,38.8,36.4,29.36,East,87,10.0,20.0,91,0.07,,,0.57,VWS V14.01,2013-03-15 04:40:00,
2013-03-15 05:45:00,38.7,36.3,29.36,East,87,14.0,20.0,91,0.08,,,0.58,VWS V14.01,2013-03-15 04:45:00,
2013-03-15 05:50:00,38.6,36.5,29.36,ENE,72,17.0,17.0,92,0.06,,,0.59,VWS V14.01,2013-03-15 04:50:00,
2013-03-15 05:55:00,38.7,36.6,29.37,East,97,9.0,18.0,92,0.06,,,0.59,VWS V14.01,2013-03-15 04:55:00,
2013-03-15 06:00:00,38.7,36.6,29.37,East,94,14.0,19.0,92,0.07,,,0.60,VWS V14.01,2013-03-15 05:00:00,
2013-03-15 06:06:00,38.7,36.6,29.38,ESE,105,12.0,19.0,92,0.07,,,0.61,VWS V14.01,2013-03-15 05:06:00,
2013-03-15 06:10:00,38.9,36.5,29.38,ESE,113,12.0,18.0,91,0.08,,,0.62,VWS V14.01,2013-03-15 05:10:00,
2013-03-15 06:11:00,38.8,36.4,29.38,ENE,72,10.0,18.0,91,0.07,,,0.61,VWS V14.01,2013-03-15 05:11:00,
2013-03-15 06:16:00,38.9,36.5,29.38,East,81,14.0,14.0,91,0.08,,,0.62,VWS V14.01,2013-03-15 05:16:00,
2013-03-15 06:20:00,39.0,36.6,29.38,ESE,105,13.0,18.0,91,0.09,,,0.63,VWS V14.01,2013-03-15 05:20:00,
2013-03-15 06:21:00,39.0,36.6,29.38,East,101,7.0,18.0,91,0.08,,,0.62,VWS V14.01,2013-03-15 05:21:00,
2013-03-15 06:26:00,39.0,36.6,29.38,ENE,78,7.0,13.0,91,0.08,,,0.63,VWS V14.01,2013-03-15 05:26:00,
2013-03-15 06:30:00,39.2,36.8,29.39,ENE,59,15.0,24.0,91,0.08,,,0.63,VWS V14.01,2013-03-15 05:30:00,
2013-03-15 06:31:00,39.2,36.8,29.38,East,101,10.0,24.0,91,0.08,,,0.63,VWS V14.01,2013-03-15 05:31:00,
2013-03-15 06:37:00,39.3,36.9,29.39,East,92,13.0,19.0,91,0.08,,,0.63,VWS V14.01,2013-03-15 05:37:00,
2013-03-15 06:40:00,39.8,37.4,29.39,East,81,7.0,19.0,91,0.08,,,0.63,VWS V14.01,2013-03-15 05:40:00,
2013-03-15 06:42:00,39.6,37.2,29.39,East,84,13.0,19.0,91,0.08,,,0.63,VWS V14.01,2013-03-15 05:42:00,
2013-03-15 06:47:00,39.7,37.0,29.39,ENE,63,8.0,12.0,90,0.05,,,0.63,VWS V14.01,2013-03-15 05:47:00,
2013-03-15 06:50:00,39.9,37.2,29.39,East,90,13.0,17.0,90,0.05,,,0.63,VWS V14.01,2013-03-15 05:50:00,
2013-03-15 06:52:00,39.7,37.3,29.39,ENE,58,10.0,14.0,91,0.05,,,0.63,VWS V14.01,2013-03-15 05:52:00,
2013-03-15 06:57:00,39.9,37.2,29.39,East,94,8.0,14.0,90,0.05,,,0.64,VWS V14.01,2013-03-15 05:57:00,
2013-03-15 07:00:00,40.2,37.5,29.39,ENE,67,16.0,16.0,90,0.05,,,0.64,VWS V14.01,2013-03-15 06:00:00,
2013-03-15 07:02:00,40.2,37.5,29.39,ENE,75,7.0,15.0,90,0.05,,,0.64,VWS V14.01,2013-03-15 06:02:00,
2013-03-15 07:07:00,40.2,37.5,29.39,ENE,67,11.0,16.0,90,0.03,,,0.64,VWS V14.01,2013-03-15 06:07:00,
2013-03-15 07:10:00,40.3,37.6,29.40,ENE,76,7.0,16.0,90,0.03,,,0.64,VWS V14.01,2013-03-15 06:10:00,
2013-03-15 07:12:00,40.3,37.6,29.39,ENE,73,10.0,16.0,90,0.03,,,0.64,VWS V14.01,2013-03-15 06:12:00,
2013-03-15 07:17:00,40.4,37.7,29.40,NE,52,9.0,12.0,90,0.02,,,0.64,VWS V14.01,2013-03-15 06:17:00,
2013-03-15 07:20:00,40.5,37.5,29.40,ENE,63,16.0,16.0,89,0.02,,,0.64,VWS V14.01,2013-03-15 06:20:00,
2013-03-15 07:22:00,40.5,37.8,29.40,ENE,75,8.0,15.0,90,0.02,,,0.64,VWS V14.01,2013-03-15 06:22:00,
2013-03-15 07:27:00,40.5,37.5,29.40,NE,51,15.0,18.0,89,0.01,,,0.64,VWS V14.01,2013-03-15 06:27:00,
2013-03-15 07:30:00,41.0,37.7,29.40,NE,51,12.0,21.0,88,0.01,,,0.64,VWS V14.01,2013-03-15 06:30:00,
2013-03-15 07:32:00,40.9,37.6,29.40,ENE,74,15.0,21.0,88,0.01,,,0.64,VWS V14.01,2013-03-15 06:32:00,
2013-03-15 07:37:00,41.0,37.7,29.41,NE,49,15.0,15.0,88,0.01,,,0.64,VWS V14.01,2013-03-15 06:37:00,
2013-03-15 07:40:00,41.1,37.2,29.41,NE,52,24.0,24.0,86,0.01,,,0.64,VWS V14.01,2013-03-15 06:40:00,
2013-03-15 07:42:00,41.0,37.4,29.41,NNE,33,16.0,22.0,87,0.01,,,0.64,VWS V14.01,2013-03-15 06:42:00,
2013-03-15 07:47:00,40.9,37.0,29.41,NE,47,14.0,24.0,86,0.01,,,0.64,VWS V14.01,2013-03-15 06:47:00,
2013-03-15 07:50:00,40.7,37.1,29.41,ENE,57,12.0,25.0,87,0.02,,,0.65,VWS V14.01,2013-03-15 06:50:00,
2013-03-15 07:52:00,40.7,37.1,29.41,ENE,58,14.0,25.0,87,0.02,,,0.65,VWS V14.01,2013-03-15 06:52:00,
2013-03-15 07:57:00,40.6,37.0,29.41,NE,51,6.0,17.0,87,0.02,,,0.65,VWS V14.01,2013-03-15 06:57:00,
2013-03-15 08:00:00,40.6,37.0,29.42,NE,53,5.0,21.0,87,0.02,,,0.65,VWS V14.01,2013-03-15 07:00:00,
2013-03-15 08:02:00,40.8,37.2,29.41,ENE,60,11.0,21.0,87,0.02,,,0.65,VWS V14.01,2013-03-15 07:02:00,
2013-03-15 08:07:00,40.5,36.9,29.42,NE,41,8.0,15.0,87,0.01,,,0.65,VWS V14.01,2013-03-15 07:07:00,
2013-03-15 08:10:00,40.4,36.8,29.42,ENE,60,10.0,26.0,87,0.01,,,0.65,VWS V14.01,2013-03-15 07:10:00,
2013-03-15 08:12:00,40.4,37.1,29.42,NE,54,10.0,19.0,88,0.01,,,0.65,VWS V14.01,2013-03-15 07:12:00,
2013-03-15 08:17:00,40.4,36.8,29.42,ENE,74,14.0,16.0,87,0.01,,,0.65,VWS V14.01,2013-03-15 07:17:00,
2013-03-15 08:20:00,40.5,36.9,29.42,NE,52,8.0,20.0,87,0.01,,,0.65,VWS V14.01,2013-03-15 07:20:00,
2013-03-15 08:22:00,40.5,36.9,29.42,ENE,63,14.0,20.0,87,0.01,,,0.65,VWS V14.01,2013-03-15 07:22:00,
2013-03-15 08:27:00,40.5,36.9,29.43,ENE,72,5.0,10.0,87,0.01,,,0.65,VWS V14.01,2013-03-15 07:27:00,
2013-03-15 08:30:00,40.6,37.0,29.43,ENE,63,12.0,16.0,87,0.01,,,0.65,VWS V14.01,2013-03-15 07:30:00,
2013-03-15 08:32:00,40.5,36.9,29.43,NE,54,6.0,16.0,87,0.01,,,0.65,VWS V14.01,2013-03-15 07:32:00,
2013-03-15 08:37:00,40.7,37.1,29.43,East,90,13.0,16.0,87,0.01,,,0.65,VWS V14.01,2013-03-15 07:37:00,
2013-03-15 08:40:00,41.0,36.8,29.44,East,80,17.0,26.0,85,0.01,,,0.65,VWS V14.01,2013-03-15 07:40:00,
2013-03-15 08:42:00,40.8,36.9,29.44,ENE,78,17.0,21.0,86,0.01,,,0.65,VWS V14.01,2013-03-15 07:42:00,
2013-03-15 08:47:00,41.1,36.9,29.44,ENE,72,15.0,17.0,85,0.01,,,0.65,VWS V14.01,2013-03-15 07:47:00,
2013-03-15 08:50:00,41.2,37.0,29.44,NE,46,11.0,20.0,85,0.01,,,0.65,VWS V14.01,2013-03-15 07:50:00,
2013-03-15 08:52:00,41.2,37.0,29.44,NE,53,7.0,18.0,85,0.01,,,0.65,VWS V14.01,2013-03-15 07:52:00,
2013-03-15 08:57:00,41.3,37.1,29.44,NE,53,20.0,20.0,85,0.00,,,0.65,VWS V14.01,2013-03-15 07:57:00,
2013-03-15 09:00:00,41.8,37.0,29.45,ENE,76,7.0,22.0,83,0.00,,,0.65,VWS V14.01,2013-03-15 08:00:00,
2013-03-15 09:02:00,41.7,36.9,29.44,NE,55,12.0,22.0,83,0.00,,,0.65,VWS V14.01,2013-03-15 08:02:00,
2013-03-15 09:07:00,42.0,36.9,29.45,NE,41,8.0,22.0,82,0.00,,,0.65,VWS V14.01,2013-03-15 08:07:00,
2013-03-15 09:10:00,42.3,36.6,29.45,ENE,75,8.0,22.0,80,0.00,,,0.65,VWS V14.01,2013-03-15 08:10:00,
2013-03-15 09:12:00,42.3,36.9,29.46,ENE,78,7.0,22.0,81,0.00,,,0.65,VWS V14.01,2013-03-15 08:12:00,
2013-03-15 09:17:00,42.3,36.9,29.46,NE,45,3.0,10.0,81,0.00,,,0.65,VWS V14.01,2013-03-15 08:17:00,
2013-03-15 09:20:00,42.1,36.4,29.46,ENE,63,5.0,15.0,80,0.00,,,0.65,VWS V14.01,2013-03-15 08:20:00,
2013-03-15 09:22:00,42.3,36.6,29.46,NE,38,10.0,15.0,80,0.00,,,0.65,VWS V14.01,2013-03-15 08:22:00,
2013-03-15 09:27:00,42.1,36.7,29.46,NE,34,7.0,10.0,81,0.00,,,0.65,VWS V14.01,2013-03-15 08:27:00,
2013-03-15 09:30:00,42.1,36.7,29.46,NE,36,6.0,10.0,81,0.00,,,0.65,VWS V14.01,2013-03-15 08:30:00,
2013-03-15 09:32:00,42.1,36.7,29.46,NE,55,6.0,10.0,81,0.00,,,0.65,VWS V14.01,2013-03-15 08:32:00,
2013-03-15 09:37:00,42.2,36.8,29.46,NE,46,3.0,11.0,81,0.00,,,0.65,VWS V14.01,2013-03-15 08:37:00,
2013-03-15 09:40:00,42.4,36.7,29.47,ENE,68,2.0,11.0,80,0.00,,,0.65,VWS V14.01,2013-03-15 08:40:00,
2013-03-15 09:42:00,42.4,37.0,29.47,ENE,59,4.0,11.0,81,0.00,,,0.65,VWS V14.01,2013-03-15 08:42:00,
2013-03-15 09:47:00,42.5,37.1,29.47,ENE,68,2.0,4.0,81,0.00,,,0.65,VWS V14.01,2013-03-15 08:47:00,
2013-03-15 09:50:00,42.7,36.7,29.48,East,85,7.0,13.0,79,0.00,,,0.65,VWS V14.01,2013-03-15 08:50:00,
2013-03-15 09:53:00,42.4,36.7,29.47,East,80,11.0,11.0,80,0.00,,,0.65,VWS V14.01,2013-03-15 08:53:00,
2013-03-15 09:58:00,42.8,36.4,29.48,NE,51,11.0,17.0,78,0.00,,,0.65,VWS V14.01,2013-03-15 08:58:00,
2013-03-15 10:00:00,43.2,36.5,29.48,NE,51,6.0,17.0,77,0.00,,,0.65,VWS V14.01,2013-03-15 09:00:00,
2013-03-15 10:03:00,43.1,36.4,29.48,ENE,74,8.0,17.0,77,0.00,,,0.65,VWS V14.01,2013-03-15 09:03:00,
2013-03-15 10:08:00,43.1,36.4,29.48,NE,41,4.0,10.0,77,0.00,,,0.65,VWS V14.01,2013-03-15 09:08:00,
2013-03-15 10:10:00,43.1,36.4,29.48,NE,53,4.0,12.0,77,0.00,,,0.65,VWS V14.01,2013-03-15 09:10:00,
2013-03-15 10:13:00,43.0,36.3,29.48,NNE,20,10.0,12.0,77,0.00,,,0.65,VWS V14.01,2013-03-15 09:13:00,
2013-03-15 10:18:00,43.1,36.7,29.48,NE,51,7.0,9.0,78,0.00,,,0.65,VWS V14.01,2013-03-15 09:18:00,
2013-03-15 10:20:00,43.3,36.6,29.49,East,80,9.0,13.0,77,0.00,,,0.65,VWS V14.01,2013-03-15 09:20:00,
2013-03-15 10:30:00,44.0,35.9,29.49,ENE,57,15.0,18.0,73,0.00,,,0.65,VWS V14.01,2013-03-15 09:30:00,
2013-03-15 10:40:00,44.3,35.9,29.50,East,93,15.0,22.0,72,0.00,,,0.65,VWS V14.01,2013-03-15 09:40:00,
2013-03-15 10:45:00,44.3,35.9,29.50,East,93,15.0,22.0,72,0.00,,,0.65,VWS V14.01,2013-03-15 09:45:00,
2013-03-15 10:50:00,44.4,34.9,29.50,ENE,71,18.0,24.0,69,0.00,,,0.65,VWS V14.01,2013-03-15 09:50:00,
2013-03-15 10:55:00,44.4,35.2,29.50,ENE,69,7.0,24.0,70,0.01,,,0.66,VWS V14.01,2013-03-15 09:55:00,
2013-03-15 11:00:00,44.4,34.9,29.50,ENE,75,15.0,23.0,69,0.01,,,0.66,VWS V14.01,2013-03-15 10:00:00,
2013-03-15 11:05:00,44.5,35.3,29.50,ENE,74,13.0,23.0,70,0.01,,,0.66,VWS V14.01,2013-03-15 10:05:00,
2013-03-15 11:10:00,44.7,34.8,29.51,NE,53,11.0,21.0,68,0.01,,,0.66,VWS V14.01,2013-03-15 10:10:00,
2013-03-15 11:11:00,44.6,35.4,29.50,ENE,66,9.0,14.0,70,0.01,,,0.66,VWS V14.01,2013-03-15 10:11:00,
2013-03-15 11:16:00,44.8,34.9,29.51,ENE,62,8.0,11.0,68,0.01,,,0.66,VWS V14.01,2013-03-15 10:16:00,
2013-03-15 11:20:00,44.9,34.6,29.51,NE,56,8.0,16.0,67,0.01,,,0.66,VWS V14.01,2013-03-15 10:20:00,
2013-03-15 11:21:00,44.9,35.0,29.51,NE,41,9.0,13.0,68,0.01,,,0.66,VWS V14.01,2013-03-15 10:21:00,
2013-03-15 11:26:00,44.9,34.6,29.51,ENE,59,9.0,9.0,67,0.01,,,0.66,VWS V14.01,2013-03-15 10:26:00,
2013-03-15 11:30:00,45.0,34.7,29.51,ESE,116,8.0,15.0,67,0.01,,,0.66,VWS V14.01,2013-03-15 10:30:00,
2013-03-15 11:31:00,45.2,35.3,29.51,NNE,26,7.0,10.0,68,0.01,,,0.66,VWS V14.01,2013-03-15 10:31:00,
2013-03-15 11:36:00,45.0,34.7,29.51,East,94,2.0,8.0,67,0.01,,,0.66,VWS V14.01,2013-03-15 10:36:00,
2013-03-15 11:40:00,45.1,34.8,29.52,ENE,64,9.0,12.0,67,0.01,,,0.66,VWS V14.01,2013-03-15 10:40:00,
2013-03-15 11:41:00,45.2,35.3,29.52,ENE,74,10.0,11.0,68,0.01,,,0.66,VWS V14.01,2013-03-15 10:41:00,
2013-03-15 11:46:00,45.1,34.8,29.52,ENE,67,8.0,9.0,67,0.01,,,0.66,VWS V14.01,2013-03-15 10:46:00,
2013-03-15 11:50:00,45.3,35.0,29.53,East,82,6.0,15.0,67,0.01,,,0.66,VWS V14.01,2013-03-15 10:50:00,
2013-03-15 11:52:00,45.5,35.6,29.52,ENE,75,5.0,10.0,68,0.01,,,0.66,VWS V14.01,2013-03-15 10:52:00,
2013-03-15 11:57:00,45.3,35.0,29.53,NE,47,7.0,9.0,67,0.00,,,0.66,VWS V14.01,2013-03-15 10:57:00,
2013-03-15 12:00:00,45.7,35.8,29.54,NE,47,7.0,19.0,68,0.00,,,0.66,VWS V14.01,2013-03-15 11:00:00,
2013-03-15 12:02:00,45.3,35.0,29.53,NE,34,3.0,19.0,67,0.00,,,0.66,VWS V14.01,2013-03-15 11:02:00,
2013-03-15 12:07:00,45.7,35.4,29.54,East,98,5.0,11.0,67,0.00,,,0.66,VWS V14.01,2013-03-15 11:07:00,
2013-03-15 12:10:00,45.9,35.2,29.54,East,89,11.0,18.0,66,0.00,,,0.66,VWS V14.01,2013-03-15 11:10:00,
2013-03-15 12:12:00,45.6,34.9,29.54,East,83,6.0,13.0,66,0.00,,,0.66,VWS V14.01,2013-03-15 11:12:00,
2013-03-15 12:17:00,45.8,35.1,29.54,East,96,9.0,13.0,66,0.00,,,0.66,VWS V14.01,2013-03-15 11:17:00,
2013-03-15 12:20:00,45.7,34.6,29.54,ESE,105,11.0,17.0,65,0.00,,,0.66,VWS V14.01,2013-03-15 11:20:00,
2013-03-15 12:22:00,45.8,35.1,29.54,East,87,5.0,16.0,66,0.00,,,0.66,VWS V14.01,2013-03-15 11:22:00,
2013-03-15 12:27:00,45.7,34.6,29.54,NE,50,5.0,11.0,65,0.00,,,0.66,VWS V14.01,2013-03-15 11:27:00,
2013-03-15 12:30:00,46.0,35.3,29.55,ENE,73,8.0,18.0,66,0.00,,,0.66,VWS V14.01,2013-03-15 11:30:00,
2013-03-15 12:31:00,45.8,35.1,29.54,ESE,102,8.0,18.0,66,0.00,,,0.66,VWS V14.01,2013-03-15 11:31:00,
2013-03-15 12:36:00,46.0,35.3,29.55,ENE,77,8.0,10.0,66,0.00,,,0.66,VWS V14.01,2013-03-15 11:36:00,
2013-03-15 12:40:00,46.1,35.8,29.55,ENE,77,7.0,14.0,67,0.00,,,0.66,VWS V14.01,2013-03-15 11:40:00,
2013-03-15 12:42:00,46.0,35.3,29.55,NE,55,6.0,14.0,66,0.00,,,0.66,VWS V14.01,2013-03-15 11:42:00,
2013-03-15 12:47:00,46.2,35.5,29.55,East,80,13.0,13.0,66,0.00,,,0.66,VWS V14.01,2013-03-15 11:47:00,
2013-03-15 12:50:00,46.2,35.9,29.56,ENE,63,7.0,13.0,67,0.00,,,0.66,VWS V14.01,2013-03-15 11:50:00,
2013-03-15 12:52:00,46.2,35.9,29.56,NE,55,4.0,13.0,67,0.00,,,0.66,VWS V14.01,2013-03-15 11:52:00,
2013-03-15 12:57:00,46.2,35.9,29.56,ESE,111,10.0,10.0,67,0.00,,,0.66,VWS V14.01,2013-03-15 11:57:00,
2013-03-15 13:00:00,45.5,34.0,29.56,ENE,61,4.0,16.0,64,0.00,,,0.66,VWS V14.01,2013-03-15 12:00:00,
2013-03-15 13:02:00,45.9,35.2,29.56,East,85,6.0,10.0,66,0.00,,,0.66,VWS V14.01,2013-03-15 12:02:00,
2013-03-15 13:07:00,45.4,34.0,29.56,ENE,59,4.0,8.0,64,0.00,,,0.66,VWS V14.01,2013-03-15 12:07:00,
2013-03-15 13:10:00,45.5,33.2,29.56,ESE,107,13.0,17.0,62,0.00,,,0.66,VWS V14.01,2013-03-15 12:10:00,
2013-03-15 13:12:00,45.3,33.1,29.56,ENE,61,13.0,17.0,62,0.00,,,0.66,VWS V14.01,2013-03-15 12:12:00,
2013-03-15 13:17:00,45.4,32.8,29.56,ENE,74,8.0,13.0,61,0.00,,,0.66,VWS V14.01,2013-03-15 12:17:00,
2013-03-15 13:20:00,45.5,33.2,29.56,East,83,8.0,18.0,62,0.00,,,0.66,VWS V14.01,2013-03-15 12:20:00,
2013-03-15 13:22:00,45.5,33.2,29.56,ENE,64,4.0,18.0,62,0.00,,,0.66,VWS V14.01,2013-03-15 12:22:00,
2013-03-15 13:27:00,45.4,32.8,29.57,ENE,71,14.0,16.0,61,0.00,,,0.66,VWS V14.01,2013-03-15 12:27:00,
2013-03-15 13:30:00,45.5,33.2,29.57,ENE,59,8.0,16.0,62,0.00,,,0.66,VWS V14.01,2013-03-15 12:30:00,
2013-03-15 13:32:00,45.5,33.2,29.57,ENE,74,11.0,16.0,62,0.00,,,0.66,VWS V14.01,2013-03-15 12:32:00,
2013-03-15 13:37:00,45.4,32.8,29.57,ENE,68,10.0,14.0,61,0.00,,,0.66,VWS V14.01,2013-03-15 12:37:00,
2013-03-15 13:40:00,45.3,32.7,29.57,East,86,10.0,18.0,61,0.00,,,0.66,VWS V14.01,2013-03-15 12:40:00,
2013-03-15 13:42:00,45.4,32.8,29.57,East,101,17.0,17.0,61,0.00,,,0.66,VWS V14.01,2013-03-15 12:42:00,
2013-03-15 13:47:00,45.3,32.7,29.57,East,91,6.0,16.0,61,0.00,,,0.66,VWS V14.01,2013-03-15 12:47:00,
2013-03-15 13:50:00,45.4,33.2,29.58,NE,53,9.0,16.0,62,0.00,,,0.66,VWS V14.01,2013-03-15 12:50:00,
2013-03-15 13:52:00,45.4,33.2,29.58,ENE,71,5.0,16.0,62,0.00,,,0.66,VWS V14.01,2013-03-15 12:52:00,
2013-03-15 13:57:00,45.4,33.2,29.58,NE,35,2.0,10.0,62,0.00,,,0.66,VWS V14.01,2013-03-15 12:57:00,
2013-03-15 14:00:00,45.4,33.2,29.58,East,88,3.0,17.0,62,0.00,,,0.66,VWS V14.01,2013-03-15 13:00:00,
2013-03-15 14:02:00,45.2,32.6,29.58,NE,43,6.0,17.0,61,0.00,,,0.66,VWS V14.01,2013-03-15 13:02:00,
2013-03-15 14:07:00,45.5,33.2,29.58,ENE,73,5.0,7.0,62,0.00,,,0.66,VWS V14.01,2013-03-15 13:07:00,
2013-03-15 14:10:00,45.3,32.2,29.58,ENE,74,7.0,23.0,60,0.00,,,0.66,VWS V14.01,2013-03-15 13:10:00,
2013-03-15 14:12:00,45.4,32.8,29.58,East,79,7.0,15.0,61,0.00,,,0.66,VWS V14.01,2013-03-15 13:12:00,
2013-03-15 14:17:00,45.3,32.2,29.58,NNE,32,12.0,15.0,60,0.00,,,0.66,VWS V14.01,2013-03-15 13:17:00,
2013-03-15 14:20:00,45.3,33.1,29.58,ENE,57,5.0,15.0,62,0.00,,,0.66,VWS V14.01,2013-03-15 13:20:00,
2013-03-15 14:22:00,45.3,32.7,29.58,NNE,13,9.0,15.0,61,0.00,,,0.66,VWS V14.01,2013-03-15 13:22:00,
2013-03-15 14:27:00,45.3,33.5,29.58,NNE,28,7.0,8.0,63,0.00,,,0.66,VWS V14.01,2013-03-15 13:27:00,
2013-03-15 14:30:00,44.7,32.5,29.59,NE,43,17.0,17.0,62,0.00,,,0.66,VWS V14.01,2013-03-15 13:30:00,
2013-03-15 14:32:00,44.9,32.7,29.59,ENE,59,13.0,16.0,62,0.00,,,0.66,VWS V14.01,2013-03-15 13:32:00,
2013-03-15 14:37:00,44.6,32.4,29.59,NE,37,8.0,17.0,62,0.00,,,0.66,VWS V14.01,2013-03-15 13:37:00,
2013-03-15 14:40:00,44.4,32.2,29.59,East,92,11.0,18.0,62,0.00,,,0.66,VWS V14.01,2013-03-15 13:40:00,
2013-03-15 14:42:00,44.4,32.6,29.59,NNE,13,18.0,18.0,63,0.00,,,0.66,VWS V14.01,2013-03-15 13:42:00,
2013-03-15 14:47:00,44.3,32.1,29.59,ENE,65,7.0,17.0,62,0.00,,,0.66,VWS V14.01,2013-03-15 13:47:00,
2013-03-15 14:50:00,44.5,32.3,29.60,East,86,13.0,25.0,62,0.00,,,0.66,VWS V14.01,2013-03-15 13:50:00,
2013-03-15 14:52:00,44.5,32.3,29.59,ENE,60,9.0,25.0,62,0.00,,,0.66,VWS V14.01,2013-03-15 13:52:00,
2013-03-15 14:57:00,44.5,32.3,29.60,NE,40,8.0,13.0,62,0.00,,,0.66,VWS V14.01,2013-03-15 13:57:00,
2013-03-15 15:00:00,44.8,32.6,29.60,ENE,66,9.0,23.0,62,0.00,,,0.66,VWS V14.01,2013-03-15 14:00:00,
2013-03-15 15:02:00,44.7,32.5,29.60,NE,46,13.0,23.0,62,0.00,,,0.66,VWS V14.01,2013-03-15 14:02:00,
2013-03-15 15:07:00,44.9,32.7,29.60,East,88,13.0,13.0,62,0.00,,,0.66,VWS V14.01,2013-03-15 14:07:00,
2013-03-15 15:10:00,44.8,32.6,29.60,East,83,13.0,19.0,62,0.00,,,0.66,VWS V14.01,2013-03-15 14:10:00,
2013-03-15 15:12:00,44.8,32.2,29.60,ENE,59,9.0,19.0,61,0.00,,,0.66,VWS V14.01,2013-03-15 14:12:00,
2013-03-15 15:17:00,44.8,32.6,29.60,ENE,65,16.0,16.0,62,0.00,,,0.66,VWS V14.01,2013-03-15 14:17:00,
2013-03-15 15:20:00,44.8,32.6,29.61,ENE,74,4.0,18.0,62,0.00,,,0.66,VWS V14.01,2013-03-15 14:20:00,
2013-03-15 15:22:00,44.8,32.6,29.60,ESE,105,13.0,18.0,62,0.00,,,0.66,VWS V14.01,2013-03-15 14:22:00,
2013-03-15 15:28:00,44.8,32.6,29.61,ENE,67,8.0,14.0,62,0.00,,,0.66,VWS V14.01,2013-03-15 14:28:00,
2013-03-15 15:30:00,44.9,32.7,29.61,ENE,69,5.0,15.0,62,0.00,,,0.66,VWS V14.01,2013-03-15 14:30:00,
2013-03-15 15:32:00,44.9,32.7,29.61,ENE,67,7.0,15.0,62,0.00,,,0.66,VWS V14.01,2013-03-15 14:32:00,
2013-03-15 15:37:00,44.8,32.6,29.62,NE,36,11.0,21.0,62,0.00,,,0.66,VWS V14.01,2013-03-15 14:37:00,
2013-03-15 15:40:00,44.8,33.0,29.62,NE,46,9.0,21.0,63,0.00,,,0.66,VWS V14.01,2013-03-15 14:40:00,
2013-03-15 15:42:00,44.7,32.5,29.62,East,79,11.0,21.0,62,0.00,,,0.66,VWS V14.01,2013-03-15 14:42:00,
2013-03-15 15:47:00,44.7,32.5,29.62,ENE,66,11.0,20.0,62,0.00,,,0.66,VWS V14.01,2013-03-15 14:47:00,
2013-03-15 15:50:00,44.4,32.2,29.62,ESE,123,10.0,23.0,62,0.00,,,0.66,VWS V14.01,2013-03-15 14:50:00,
2013-03-15 15:53:00,44.6,32.4,29.63,ENE,66,14.0,20.0,62,0.00,,,0.66,VWS V14.01,2013-03-15 14:53:00,
2013-03-15 15:58:00,44.5,32.3,29.62,East,91,11.0,15.0,62,0.00,,,0.66,VWS V14.01,2013-03-15 14:58:00,
2013-03-15 16:00:00,44.6,32.8,29.63,East,82,8.0,22.0,63,0.00,,,0.66,VWS V14.01,2013-03-15 15:00:00,
2013-03-15 16:03:00,44.5,32.3,29.63,East,83,22.0,22.0,62,0.00,,,0.66,VWS V14.01,2013-03-15 15:03:00,
2013-03-15 16:08:00,44.6,32.4,29.63,ENE,77,9.0,13.0,62,0.00,,,0.66,VWS V14.01,2013-03-15 15:08:00,
2013-03-15 16:10:00,44.6,32.0,29.63,NE,53,11.0,18.0,61,0.00,,,0.66,VWS V14.01,2013-03-15 15:10:00,
2013-03-15 16:13:00,44.7,32.5,29.63,ENE,61,8.0,17.0,62,0.00,,,0.66,VWS V14.01,2013-03-15 15:13:00,
2013-03-15 16:18:00,44.6,32.0,29.64,East,82,7.0,14.0,61,0.00,,,0.66,VWS V14.01,2013-03-15 15:18:00,
2013-03-15 16:20:00,44.6,32.4,29.64,NE,55,10.0,18.0,62,0.00,,,0.66,VWS V14.01,2013-03-15 15:20:00,
2013-03-15 16:23:00,44.6,32.4,29.64,ENE,74,10.0,18.0,62,0.00,,,0.66,VWS V14.01,2013-03-15 15:23:00,
2013-03-15 16:28:00,44.6,32.0,29.64,NE,51,5.0,19.0,61,0.00,,,0.66,VWS V14.01,2013-03-15 15:28:00,
2013-03-15 16:30:00,44.5,31.9,29.64,ENE,69,9.0,22.0,61,0.00,,,0.66,VWS V14.01,2013-03-15 15:30:00,
2013-03-15 16:33:00,44.6,32.0,29.64,NE,44,12.0,19.0,61,0.00,,,0.66,VWS V14.01,2013-03-15 15:33:00,
2013-03-15 16:38:00,44.5,31.5,29.65,East,80,16.0,18.0,60,0.00,,,0.66,VWS V14.01,2013-03-15 15:38:00,
2013-03-15 16:40:00,44.4,31.0,29.65,East,88,13.0,23.0,59,0.00,,,0.66,VWS V14.01,2013-03-15 15:40:00,
2013-03-15 16:43:00,44.6,31.2,29.65,ENE,71,10.0,18.0,59,0.00,,,0.66,VWS V14.01,2013-03-15 15:43:00,
2013-03-15 16:48:00,44.4,31.0,29.65,East,95,13.0,17.0,59,0.00,,,0.66,VWS V14.01,2013-03-15 15:48:00,
2013-03-15 16:50:00,44.5,31.5,29.65,ENE,62,12.0,20.0,60,0.00,,,0.66,VWS V14.01,2013-03-15 15:50:00,
2013-03-15 16:53:00,44.5,31.5,29.65,East,80,9.0,20.0,60,0.00,,,0.66,VWS V14.01,2013-03-15 15:53:00,
2013-03-15 16:58:00,44.4,31.4,29.66,East,96,6.0,16.0,60,0.00,,,0.66,VWS V14.01,2013-03-15 15:58:00,
2013-03-15 17:00:00,44.4,31.0,29.66,NE,54,10.0,20.0,59,0.00,,,0.66,VWS V14.01,2013-03-15 16:00:00,
2013-03-15 17:03:00,44.4,31.0,29.66,East,82,8.0,20.0,59,0.00,,,0.66,VWS V14.01,2013-03-15 16:03:00,
2013-03-15 17:08:00,44.3,30.9,29.66,ENE,63,9.0,12.0,59,0.00,,,0.66,VWS V14.01,2013-03-15 16:08:00,
2013-03-15 17:10:00,44.2,31.2,29.67,ENE,71,4.0,21.0,60,0.00,,,0.66,VWS V14.01,2013-03-15 16:10:00,
2013-03-15 17:13:00,44.2,30.8,29.66,ENE,76,15.0,21.0,59,0.00,,,0.66,VWS V14.01,2013-03-15 16:13:00,
2013-03-15 17:18:00,44.2,31.2,29.67,ENE,74,11.0,15.0,60,0.00,,,0.66,VWS V14.01,2013-03-15 16:18:00,
2013-03-15 17:20:00,44.4,31.0,29.67,East,84,13.0,22.0,59,0.00,,,0.66,VWS V14.01,2013-03-15 16:20:00,
2013-03-15 17:23:00,44.3,30.9,29.67,NE,45,16.0,22.0,59,0.00,,,0.66,VWS V14.01,2013-03-15 16:23:00,
2013-03-15 17:28:00,44.4,31.0,29.67,ENE,76,16.0,20.0,59,0.00,,,0.66,VWS V14.01,2013-03-15 16:28:00,
2013-03-15 17:30:00,44.3,30.9,29.68,East,90,14.0,21.0,59,0.00,,,0.66,VWS V14.01,2013-03-15 16:30:00,
2013-03-15 17:33:00,44.3,31.3,29.68,ENE,67,13.0,20.0,60,0.00,,,0.66,VWS V14.01,2013-03-15 16:33:00,
2013-03-15 17:38:00,44.2,31.2,29.68,ENE,77,14.0,14.0,60,0.00,,,0.66,VWS V14.01,2013-03-15 16:38:00,
2013-03-15 17:40:00,44.1,31.1,29.68,ENE,73,5.0,18.0,60,0.00,,,0.66,VWS V14.01,2013-03-15 16:40:00,
2013-03-15 17:43:00,44.1,31.1,29.68,ENE,67,12.0,18.0,60,0.00,,,0.66,VWS V14.01,2013-03-15 16:43:00,
2013-03-15 17:48:00,44.0,31.0,29.68,ENE,71,15.0,15.0,60,0.00,,,0.66,VWS V14.01,2013-03-15 16:48:00,
2013-03-15 17:50:00,43.9,30.9,29.69,ENE,77,13.0,20.0,60,0.00,,,0.66,VWS V14.01,2013-03-15 16:50:00,
2013-03-15 17:53:00,43.9,31.3,29.69,NE,51,10.0,16.0,61,0.00,,,0.66,VWS V14.01,2013-03-15 16:53:00,
2013-03-15 17:58:00,43.9,30.9,29.69,ENE,59,17.0,18.0,60,0.00,,,0.66,VWS V14.01,2013-03-15 16:58:00,
2013-03-15 18:00:00,44.0,31.0,29.70,East,80,8.0,22.0,60,0.00,,,0.66,VWS V14.01,2013-03-15 17:00:00,
2013-03-15 18:03:00,44.0,31.0,29.70,East,88,11.0,22.0,60,0.00,,,0.66,VWS V14.01,2013-03-15 17:03:00,
2013-03-15 18:08:00,43.8,30.8,29.70,ENE,68,7.0,16.0,60,0.00,,,0.66,VWS V14.01,2013-03-15 17:08:00,
2013-03-15 18:10:00,43.7,31.1,29.70,East,82,6.0,16.0,61,0.00,,,0.66,VWS V14.01,2013-03-15 17:10:00,
2013-03-15 18:13:00,43.7,31.1,29.70,NE,53,6.0,16.0,61,0.00,,,0.66,VWS V14.01,2013-03-15 17:13:00,
2013-03-15 18:18:00,43.8,30.8,29.71,ENE,66,13.0,16.0,60,0.00,,,0.66,VWS V14.01,2013-03-15 17:18:00,
2013-03-15 18:20:00,43.7,30.7,29.71,East,84,5.0,16.0,60,0.00,,,0.66,VWS V14.01,2013-03-15 17:20:00,
2013-03-15 18:23:00,43.7,30.7,29.71,East,88,16.0,16.0,60,0.00,,,0.66,VWS V14.01,2013-03-15 17:23:00,
2013-03-15 18:28:00,43.6,30.6,29.71,ENE,68,8.0,9.0,60,0.00,,,0.66,VWS V14.01,2013-03-15 17:28:00,
2013-03-15 18:30:00,43.6,30.2,29.72,NE,47,7.0,14.0,59,0.00,,,0.66,VWS V14.01,2013-03-15 17:30:00,
2013-03-15 18:33:00,43.6,30.6,29.72,ENE,73,12.0,14.0,60,0.00,,,0.66,VWS V14.01,2013-03-15 17:33:00,
2013-03-15 18:38:00,43.6,30.6,29.72,ENE,71,12.0,12.0,60,0.00,,,0.66,VWS V14.01,2013-03-15 17:38:00,
2013-03-15 18:40:00,43.7,30.3,29.73,NE,56,10.0,15.0,59,0.00,,,0.66,VWS V14.01,2013-03-15 17:40:00,
2013-03-15 18:43:00,43.7,30.3,29.73,ENE,58,8.0,15.0,59,0.00,,,0.66,VWS V14.01,2013-03-15 17:43:00,
2013-03-15 18:48:00,43.5,30.5,29.73,NE,48,10.0,10.0,60,0.00,,,0.66,VWS V14.01,2013-03-15 17:48:00,
2013-03-15 18:50:00,43.5,30.5,29.73,East,80,7.0,14.0,60,0.00,,,0.66,VWS V14.01,2013-03-15 17:50:00,
2013-03-15 18:53:00,43.5,30.5,29.73,ENE,63,10.0,12.0,60,0.00,,,0.66,VWS V14.01,2013-03-15 17:53:00,
2013-03-15 18:58:00,43.5,30.5,29.73,ESE,106,7.0,12.0,60,0.00,,,0.66,VWS V14.01,2013-03-15 17:58:00,
2013-03-15 19:00:00,43.5,31.0,29.74,East,90,9.0,14.0,61,0.00,,,0.66,VWS V14.01,2013-03-15 18:00:00,
2013-03-15 19:03:00,43.5,31.0,29.74,ENE,70,7.0,14.0,61,0.00,,,0.66,VWS V14.01,2013-03-15 18:03:00,
2013-03-15 19:08:00,43.5,31.0,29.74,ENE,57,10.0,15.0,61,0.00,,,0.66,VWS V14.01,2013-03-15 18:08:00,
2013-03-15 19:10:00,43.4,30.9,29.75,ENE,78,10.0,15.0,61,0.00,,,0.66,VWS V14.01,2013-03-15 18:10:00,
2013-03-15 19:13:00,43.4,30.9,29.74,ENE,78,14.0,15.0,61,0.00,,,0.66,VWS V14.01,2013-03-15 18:13:00,
2013-03-15 19:18:00,43.4,30.9,29.75,East,84,9.0,14.0,61,0.00,,,0.66,VWS V14.01,2013-03-15 18:18:00,
2013-03-15 19:20:00,43.5,30.5,29.75,ENE,59,10.0,17.0,60,0.00,,,0.66,VWS V14.01,2013-03-15 18:20:00,
2013-03-15 19:23:00,43.5,30.5,29.75,ENE,72,11.0,17.0,60,0.00,,,0.66,VWS V14.01,2013-03-15 18:23:00,
2013-03-15 19:29:00,43.5,30.1,29.75,East,100,7.0,16.0,59,0.00,,,0.66,VWS V14.01,2013-03-15 18:29:00,
2013-03-15 19:30:00,43.5,30.1,29.76,East,79,11.0,19.0,59,0.00,,,0.66,VWS V14.01,2013-03-15 18:30:00,
2013-03-15 19:34:00,43.5,30.1,29.75,ENE,73,7.0,19.0,59,0.00,,,0.66,VWS V14.01,2013-03-15 18:34:00,
2013-03-15 19:39:00,43.5,30.1,29.76,ENE,64,11.0,15.0,59,0.00,,,0.66,VWS V14.01,2013-03-15 18:39:00,
2013-03-15 19:40:00,43.5,30.1,29.76,ENE,72,12.0,19.0,59,0.00,,,0.66,VWS V14.01,2013-03-15 18:40:00,
2013-03-15 19:44:00,43.5,30.1,29.76,NE,56,16.0,19.0,59,0.00,,,0.66,VWS V14.01,2013-03-15 18:44:00,
2013-03-15 19:49:00,43.5,30.1,29.76,East,80,5.0,14.0,59,0.00,,,0.66,VWS V14.01,2013-03-15 18:49:00,
2013-03-15 19:50:00,43.4,30.0,29.77,East,87,13.0,18.0,59,0.00,,,0.66,VWS V14.01,2013-03-15 18:50:00,
2013-03-15 19:54:00,43.4,30.0,29.77,ENE,57,10.0,18.0,59,0.00,,,0.66,VWS V14.01,2013-03-15 18:54:00,
2013-03-15 19:59:00,43.4,30.0,29.77,ENE,69,10.0,18.0,59,0.00,,,0.66,VWS V14.01,2013-03-15 18:59:00,
2013-03-15 20:00:00,43.3,30.0,29.77,ENE,63,7.0,19.0,59,0.00,,,0.66,VWS V14.01,2013-03-15 19:00:00,
2013-03-15 20:03:00,43.3,30.0,29.77,East,85,15.0,19.0,59,0.00,,,0.66,VWS V14.01,2013-03-15 19:03:00,
2013-03-15 20:09:00,43.2,29.9,29.77,ENE,65,7.0,16.0,59,0.00,,,0.66,VWS V14.01,2013-03-15 19:09:00,
2013-03-15 20:10:00,43.2,29.9,29.78,ENE,71,9.0,19.0,59,0.00,,,0.66,VWS V14.01,2013-03-15 19:10:00,
2013-03-15 20:14:00,43.3,30.0,29.77,NE,56,12.0,19.0,59,0.00,,,0.66,VWS V14.01,2013-03-15 19:14:00,
2013-03-15 20:19:00,43.2,29.9,29.78,ENE,73,12.0,16.0,59,0.00,,,0.66,VWS V14.01,2013-03-15 19:19:00,
2013-03-15 20:20:00,43.2,29.9,29.78,East,89,11.0,18.0,59,0.00,,,0.66,VWS V14.01,2013-03-15 19:20:00,
2013-03-15 20:24:00,43.2,29.9,29.78,ENE,74,9.0,18.0,59,0.00,,,0.66,VWS V14.01,2013-03-15 19:24:00,
2013-03-15 20:29:00,43.2,29.9,29.78,ENE,76,9.0,12.0,59,0.00,,,0.66,VWS V14.01,2013-03-15 19:29:00,
2013-03-15 20:30:00,43.1,29.8,29.78,ENE,67,10.0,16.0,59,0.00,,,0.66,VWS V14.01,2013-03-15 19:30:00,
2013-03-15 20:34:00,43.1,29.8,29.78,ENE,69,3.0,12.0,59,0.00,,,0.66,VWS V14.01,2013-03-15 19:34:00,
2013-03-15 20:39:00,43.2,29.4,29.78,ENE,66,8.0,14.0,58,0.00,,,0.66,VWS V14.01,2013-03-15 19:39:00,
2013-03-15 20:40:00,43.2,29.4,29.79,ENE,67,4.0,14.0,58,0.00,,,0.66,VWS V14.01,2013-03-15 19:40:00,
2013-03-15 20:44:00,43.3,29.1,29.78,East,81,7.0,14.0,57,0.00,,,0.66,VWS V14.01,2013-03-15 19:44:00,
2013-03-15 20:49:00,43.2,29.4,29.79,ENE,78,3.0,9.0,58,0.00,,,0.66,VWS V14.01,2013-03-15 19:49:00,
2013-03-15 20:50:00,43.1,29.3,29.79,ENE,58,7.0,11.0,58,0.00,,,0.66,VWS V14.01,2013-03-15 19:50:00,
2013-03-15 20:54:00,43.1,29.3,29.79,ENE,61,4.0,9.0,58,0.00,,,0.66,VWS V14.01,2013-03-15 19:54:00,
2013-03-15 20:59:00,43.1,29.3,29.79,East,99,6.0,10.0,58,0.00,,,0.66,VWS V14.01,2013-03-15 19:59:00,
2013-03-15 21:00:00,43.2,29.4,29.80,ENE,62,4.0,10.0,58,0.00,,,0.66,VWS V14.01,2013-03-15 20:00:00,
2013-03-15 21:04:00,43.1,29.3,29.80,ENE,78,7.0,10.0,58,0.00,,,0.66,VWS V14.01,2013-03-15 20:04:00,
2013-03-15 21:09:00,43.1,29.3,29.80,ENE,61,2.0,4.0,58,0.00,,,0.66,VWS V14.01,2013-03-15 20:09:00,
2013-03-15 21:10:00,43.1,29.3,29.81,East,84,7.0,7.0,58,0.00,,,0.66,VWS V14.01,2013-03-15 20:10:00,
2013-03-15 21:14:00,43.1,29.3,29.80,East,85,6.0,7.0,58,0.00,,,0.66,VWS V14.01,2013-03-15 20:14:00,
2013-03-15 21:19:00,43.2,29.4,29.81,ENE,74,4.0,9.0,58,0.00,,,0.66,VWS V14.01,2013-03-15 20:19:00,
2013-03-15 21:20:00,43.1,29.8,29.81,ENE,63,3.0,10.0,59,0.00,,,0.66,VWS V14.01,2013-03-15 20:20:00,
2013-03-15 21:24:00,43.1,29.8,29.81,East,80,5.0,9.0,59,0.00,,,0.66,VWS V14.01,2013-03-15 20:24:00,
2013-03-15 21:29:00,43.0,29.7,29.81,ENE,75,3.0,8.0,59,0.00,,,0.66,VWS V14.01,2013-03-15 20:29:00,
2013-03-15 21:30:00,43.0,29.7,29.81,East,84,3.0,11.0,59,0.00,,,0.66,VWS V14.01,2013-03-15 20:30:00,
2013-03-15 21:34:00,43.0,29.7,29.81,ENE,72,8.0,11.0,59,0.00,,,0.66,VWS V14.01,2013-03-15 20:34:00,
2013-03-15 21:39:00,43.0,29.7,29.82,ENE,72,9.0,10.0,59,0.00,,,0.66,VWS V14.01,2013-03-15 20:39:00,
2013-03-15 21:40:00,43.2,29.4,29.82,East,88,3.0,10.0,58,0.00,,,0.66,VWS V14.01,2013-03-15 20:40:00,
2013-03-15 21:44:00,43.1,29.8,29.82,East,80,6.0,10.0,59,0.00,,,0.66,VWS V14.01,2013-03-15 20:44:00,
2013-03-15 21:49:00,43.2,29.9,29.82,ENE,63,8.0,8.0,59,0.00,,,0.66,VWS V14.01,2013-03-15 20:49:00,
2013-03-15 21:50:00,43.2,29.9,29.83,ENE,63,7.0,8.0,59,0.00,,,0.66,VWS V14.01,2013-03-15 20:50:00,
2013-03-15 21:54:00,43.1,29.8,29.82,NE,55,3.0,8.0,59,0.00,,,0.66,VWS V14.01,2013-03-15 20:54:00,
2013-03-15 21:59:00,43.1,29.8,29.83,ENE,64,3.0,8.0,59,0.00,,,0.66,VWS V14.01,2013-03-15 20:59:00,
2013-03-15 22:00:00,43.3,29.5,29.83,ENE,61,2.0,10.0,58,0.00,,,0.66,VWS V14.01,2013-03-15 21:00:00,
2013-03-15 22:04:00,43.3,29.5,29.83,ENE,61,5.0,10.0,58,0.00,,,0.66,VWS V14.01,2013-03-15 21:04:00,
2013-03-15 22:09:00,43.2,29.4,29.83,ENE,61,0.0,5.0,58,0.00,,,0.66,VWS V14.01,2013-03-15 21:09:00,
2013-03-15 22:10:00,43.2,29.4,29.83,East,94,6.0,11.0,58,0.00,,,0.66,VWS V14.01,2013-03-15 21:10:00,
2013-03-15 22:14:00,43.1,29.8,29.83,ENE,62,8.0,11.0,59,0.00,,,0.66,VWS V14.01,2013-03-15 21:14:00,
2013-03-15 22:19:00,43.2,29.4,29.83,East,82,5.0,6.0,58,0.00,,,0.66,VWS V14.01,2013-03-15 21:19:00,
2013-03-15 22:20:00,43.2,29.4,29.83,East,86,11.0,12.0,58,0.00,,,0.66,VWS V14.01,2013-03-15 21:20:00,
2013-03-15 22:24:00,43.2,29.4,29.83,East,79,11.0,12.0,58,0.00,,,0.66,VWS V14.01,2013-03-15 21:24:00,
2013-03-15 22:29:00,43.2,29.4,29.83,East,80,9.0,11.0,58,0.00,,,0.66,VWS V14.01,2013-03-15 21:29:00,
2013-03-15 22:30:00,43.2,29.4,29.83,ENE,78,5.0,11.0,58,0.00,,,0.66,VWS V14.01,2013-03-15 21:30:00,
2013-03-15 22:34:00,43.2,29.4,29.83,ENE,63,8.0,11.0,58,0.00,,,0.66,VWS V14.01,2013-03-15 21:34:00,
2013-03-15 22:39:00,43.1,29.3,29.83,ENE,71,5.0,9.0,58,0.00,,,0.66,VWS V14.01,2013-03-15 21:39:00,
2013-03-15 22:40:00,43.1,29.3,29.83,East,86,5.0,9.0,58,0.00,,,0.66,VWS V14.01,2013-03-15 21:40:00,
2013-03-15 22:44:00,43.1,29.3,29.83,ENE,64,7.0,9.0,58,0.00,,,0.66,VWS V14.01,2013-03-15 21:44:00,
2013-03-15 22:49:00,43.0,29.7,29.83,East,84,6.0,6.0,59,0.00,,,0.66,VWS V14.01,2013-03-15 21:49:00,
2013-03-15 22:50:00,42.9,29.6,29.83,East,79,10.0,11.0,59,0.00,,,0.66,VWS V14.01,2013-03-15 21:50:00,
2013-03-15 22:54:00,42.8,29.5,29.83,ENE,59,3.0,7.0,59,0.00,,,0.66,VWS V14.01,2013-03-15 21:54:00,
2013-03-15 22:59:00,43.0,29.2,29.83,ENE,72,8.0,10.0,58,0.00,,,0.66,VWS V14.01,2013-03-15 21:59:00,
2013-03-15 23:00:00,43.0,29.7,29.83,East,84,6.0,10.0,59,0.00,,,0.66,VWS V14.01,2013-03-15 22:00:00,
2013-03-15 23:04:00,43.0,29.7,29.83,ENE,58,4.0,10.0,59,0.00,,,0.66,VWS V14.01,2013-03-15 22:04:00,
2013-03-15 23:09:00,43.0,29.7,29.83,ENE,69,4.0,7.0,59,0.00,,,0.66,VWS V14.01,2013-03-15 22:09:00,
2013-03-15 23:10:00,43.0,29.7,29.83,ENE,61,3.0,10.0,59,0.00,,,0.66,VWS V14.01,2013-03-15 22:10:00,
2013-03-15 23:14:00,43.0,29.2,29.83,ENE,61,5.0,10.0,58,0.00,,,0.66,VWS V14.01,2013-03-15 22:14:00,
2013-03-15 23:20:00,43.1,29.3,29.84,East,88,5.0,10.0,58,0.00,,,0.66,VWS V14.01,2013-03-15 22:20:00,
2013-03-15 23:25:00,43.0,29.7,29.84,ENE,74,2.0,10.0,59,0.00,,,0.66,VWS V14.01,2013-03-15 22:25:00,
2013-03-15 23:30:00,42.9,29.6,29.84,ENE,70,2.0,5.0,59,0.00,,,0.66,VWS V14.01,2013-03-15 22:30:00,
2013-03-15 23:35:00,42.9,29.6,29.84,ENE,70,2.0,5.0,59,0.00,,,0.66,VWS V14.01,2013-03-15 22:35:00,
2013-03-15 23:40:00,43.0,29.2,29.84,ENE,70,3.0,4.0,58,0.00,,,0.66,VWS V14.01,2013-03-15 22:40:00,
2013-03-15 23:45:00,43.2,29.0,29.84,ENE,70,3.0,4.0,57,0.00,,,0.66,VWS V14.01,2013-03-15 22:45:00,
2013-03-15 23:50:00,43.1,29.3,29.84,ENE,70,2.0,5.0,58,0.00,,,0.66,VWS V14.01,2013-03-15 22:50:00,
2013-03-15 23:55:00,43.0,29.2,29.84,ENE,67,2.0,7.0,58,0.00,,,0.66,VWS V14.01,2013-03-15 22:55:00,